createdAt,value
2018-06-13T00:01:30.230Z,46.78
2018-06-13T00:03:59.258Z,47.38
2018-06-13T00:06:26.838Z,47.63
2018-06-13T00:08:54.418Z,47.90
2018-06-13T00:11:22.006Z,46.65
2018-06-13T00:13:50.576Z,47.39
2018-06-13T00:16:18.431Z,47.05
2018-06-13T00:18:46.016Z,47.04
2018-06-13T00:21:14.446Z,47.12
2018-06-13T00:23:42.457Z,46.76
2018-06-13T00:26:10.074Z,47.82
2018-06-13T00:28:37.657Z,47.60
2018-06-13T00:31:06.494Z,46.95
2018-06-13T00:33:35.005Z,47.25
2018-06-13T00:36:02.674Z,47.44
2018-06-13T00:38:30.562Z,47.74
2018-06-13T00:40:58.327Z,47.14
2018-06-13T00:43:26.568Z,46.95
2018-06-13T00:45:54.154Z,47.07
2018-06-13T00:48:23.389Z,47.60
2018-06-13T00:50:50.995Z,47.36
2018-06-13T00:53:18.573Z,47.68
2018-06-13T00:55:46.175Z,47.20
2018-06-13T00:58:14.045Z,47.43
2018-06-13T01:00:42.438Z,47.36
2018-06-13T01:03:10.818Z,48.25
2018-06-13T01:05:38.699Z,48.08
2018-06-13T01:08:06.269Z,48.15
2018-06-13T01:10:34.535Z,47.50
2018-06-13T01:13:02.119Z,47.25
2018-06-13T01:15:30.151Z,47.46
2018-06-13T01:17:57.778Z,47.25
2018-06-13T01:20:25.376Z,48.07
2018-06-13T01:22:53.482Z,47.95
2018-06-13T01:25:21.354Z,47.98
2018-06-13T01:27:49.578Z,47.87
2018-06-13T01:30:17.209Z,48.03
2018-06-13T01:32:48.944Z,47.65
2018-06-13T01:35:16.517Z,47.13
2018-06-13T01:37:44.118Z,47.75
2018-06-13T01:40:16.559Z,47.07
2018-06-13T01:42:44.393Z,46.70
2018-06-13T01:45:13.658Z,47.12
2018-06-13T01:47:41.590Z,47.24
2018-06-13T01:50:09.200Z,47.01
2018-06-13T01:52:37.754Z,47.27
2018-06-13T01:55:05.341Z,47.77
2018-06-13T01:57:34.086Z,47.50
2018-06-13T02:00:01.659Z,47.89
2018-06-13T02:02:29.293Z,47.74
2018-06-13T02:04:56.892Z,47.89
2018-06-13T02:07:26.776Z,47.08
2018-06-13T02:09:54.350Z,47.44
2018-06-13T02:12:21.930Z,47.80
2018-06-13T02:14:49.564Z,47.82
2018-06-13T02:17:18.443Z,47.83
2018-06-13T02:19:46.045Z,47.58
2018-06-13T02:22:13.677Z,47.19
2018-06-13T02:24:41.351Z,47.36
2018-06-13T02:27:09.286Z,47.13
2018-06-13T02:29:36.883Z,47.77
2018-06-13T02:32:04.463Z,47.12
2018-06-13T02:34:33.208Z,47.25
2018-06-13T02:37:01.171Z,47.69
2018-06-13T02:39:28.762Z,48.06
2018-06-13T02:41:56.339Z,47.44
2018-06-13T02:44:23.915Z,47.31
2018-06-13T02:46:51.816Z,47.46
2018-06-13T02:49:19.395Z,47.71
2018-06-13T02:51:47.026Z,47.57
2018-06-13T02:54:21.243Z,47.62
2018-06-13T02:56:48.840Z,47.64
2018-06-13T02:59:20.568Z,48.05
2018-06-13T03:01:48.184Z,47.29
2018-06-13T03:04:15.789Z,47.44
2018-06-13T03:06:43.368Z,47.70
2018-06-13T03:09:12.253Z,47.73
2018-06-13T03:11:39.893Z,47.93
2018-06-13T03:14:07.527Z,47.94
2018-06-13T03:16:35.145Z,47.18
2018-06-13T03:19:04.179Z,47.42
2018-06-13T03:21:31.782Z,47.22
2018-06-13T03:23:59.377Z,47.97
2018-06-13T03:26:29.395Z,47.88
2018-06-13T03:28:57.017Z,47.90
2018-06-13T03:31:24.628Z,47.68
2018-06-13T03:33:52.572Z,47.81
2018-06-13T03:36:20.201Z,47.57
2018-06-13T03:38:47.819Z,47.72
2018-06-13T03:41:15.486Z,47.54
2018-06-13T03:43:43.412Z,47.30
2018-06-13T03:46:11.818Z,47.49
2018-06-13T03:48:39.465Z,47.66
2018-06-13T03:51:07.493Z,47.22
2018-06-13T03:53:35.099Z,47.74
2018-06-13T03:56:02.694Z,47.39
2018-06-13T03:58:30.282Z,46.71
2018-06-13T04:00:58.158Z,46.90
2018-06-13T04:03:25.747Z,47.34
2018-06-13T04:05:53.331Z,47.21
2018-06-13T04:08:20.929Z,47.02
2018-06-13T04:10:48.779Z,46.76
2018-06-13T04:13:16.380Z,46.36
2018-06-13T04:15:43.983Z,46.73
2018-06-13T04:18:11.879Z,46.25
2018-06-13T04:20:39.486Z,45.82
2018-06-13T04:23:07.066Z,46.48
2018-06-13T04:25:34.667Z,46.81
2018-06-13T04:28:02.525Z,46.12
2018-06-13T04:30:30.154Z,46.44
2018-06-13T04:32:57.748Z,46.78
2018-06-13T04:35:25.620Z,46.67
2018-06-13T04:37:53.227Z,46.40
2018-06-13T04:40:20.806Z,46.87
2018-06-13T04:42:48.718Z,47.08
2018-06-13T04:45:16.290Z,46.33
2018-06-13T04:47:43.929Z,46.71
2018-06-13T04:50:11.800Z,46.12
2018-06-13T04:52:39.406Z,45.97
2018-06-13T04:55:06.986Z,46.35
2018-06-13T04:57:34.918Z,46.04
2018-06-13T05:00:02.519Z,48.69
2018-06-13T05:02:30.095Z,48.95
2018-06-13T05:04:57.970Z,50.79
2018-06-13T05:07:25.573Z,52.07
2018-06-13T05:09:53.213Z,51.55
2018-06-13T05:12:21.078Z,51.23
2018-06-13T05:14:48.693Z,53.56
2018-06-13T05:17:16.286Z,52.16
2018-06-13T05:19:44.188Z,50.98
2018-06-13T05:22:12.389Z,51.98
2018-06-13T05:24:39.979Z,52.14
2018-06-13T05:27:08.811Z,52.35
2018-06-13T05:29:36.405Z,51.74
2018-06-13T05:32:03.974Z,51.45
2018-06-13T05:34:31.832Z,50.52
2018-06-13T05:36:59.450Z,50.47
2018-06-13T05:39:27.055Z,50.67
2018-06-13T05:41:56.138Z,50.32
2018-06-13T05:44:23.735Z,49.97
2018-06-13T05:46:51.317Z,49.76
2018-06-13T05:49:19.202Z,49.56
2018-06-13T05:51:46.827Z,48.73
2018-06-13T05:54:14.396Z,48.83
2018-06-13T05:56:42.303Z,49.00
2018-06-13T05:59:09.924Z,48.53
2018-06-13T06:01:37.532Z,48.33
2018-06-13T06:04:05.141Z,48.64
2018-06-13T06:06:32.751Z,48.89
2018-06-13T06:09:00.588Z,47.68
2018-06-13T06:11:28.211Z,48.35
2018-06-13T06:13:56.758Z,48.40
2018-06-13T06:16:24.650Z,48.27
2018-06-13T06:18:52.241Z,47.89
2018-06-13T06:21:19.890Z,48.19
2018-06-13T06:23:47.804Z,48.53
2018-06-13T06:26:15.425Z,47.88
2018-06-13T06:28:43.658Z,49.22
2018-06-13T06:31:12.287Z,47.65
2018-06-13T06:33:40.482Z,48.14
2018-06-13T06:36:09.339Z,47.64
2018-06-13T06:38:37.222Z,47.95
2018-06-13T06:41:05.807Z,48.43
2018-06-13T06:43:33.385Z,48.13
2018-06-13T06:46:04.568Z,48.00
2018-06-13T06:48:32.417Z,47.63
2018-06-13T06:51:00.028Z,48.11
2018-06-13T06:53:27.899Z,46.78
2018-06-13T06:55:55.471Z,47.66
2018-06-13T06:58:23.066Z,47.14
2018-06-13T07:00:50.938Z,47.60
2018-06-13T07:03:18.526Z,47.19
2018-06-13T07:05:46.951Z,46.97
2018-06-13T07:08:15.421Z,47.07
2018-06-13T07:10:43.026Z,47.44
2018-06-13T07:13:11.062Z,47.03
2018-06-13T07:15:39.503Z,46.67
2018-06-13T07:18:07.104Z,47.18
2018-06-13T07:20:34.695Z,47.45
2018-06-13T07:23:02.579Z,47.18
2018-06-13T07:25:30.169Z,47.59
2018-06-13T07:27:57.747Z,47.39
2018-06-13T07:30:25.597Z,47.00
2018-06-13T07:32:53.251Z,46.86
2018-06-13T07:35:20.919Z,47.78
2018-06-13T07:37:50.519Z,47.48
2018-06-13T07:40:18.655Z,47.22
2018-06-13T07:42:46.234Z,47.29
2018-06-13T07:45:14.070Z,47.39
2018-06-13T07:47:41.647Z,46.69
2018-06-13T07:50:09.247Z,46.58
2018-06-13T07:52:37.926Z,47.47
2018-06-13T07:55:05.601Z,47.62
2018-06-13T07:57:33.196Z,46.57
2018-06-13T08:00:01.095Z,46.87
2018-06-13T08:02:28.694Z,46.42
2018-06-13T08:04:59.654Z,46.08
2018-06-13T08:07:28.086Z,46.77
2018-06-13T08:09:55.699Z,47.02
2018-06-13T08:12:23.287Z,46.28
2018-06-13T08:14:51.147Z,46.59
2018-06-13T08:17:19.441Z,46.92
2018-06-13T08:19:47.015Z,46.24
2018-06-13T08:22:15.710Z,45.91
2018-06-13T08:24:43.532Z,45.93
2018-06-13T08:27:11.869Z,46.64
2018-06-13T08:29:39.750Z,46.65
2018-06-13T08:32:08.695Z,46.15
2018-06-13T08:34:36.281Z,46.33
2018-06-13T08:37:04.189Z,45.67
2018-06-13T08:39:32.400Z,46.07
2018-06-13T08:42:01.479Z,45.33
2018-06-13T08:44:29.399Z,45.45
2018-06-13T08:46:57.675Z,45.48
2018-06-13T08:49:25.251Z,45.54
2018-06-13T08:51:54.271Z,45.35
2018-06-13T08:54:21.894Z,45.88
2018-06-13T08:56:49.490Z,45.60
2018-06-13T08:59:17.360Z,45.96
2018-06-13T09:01:44.952Z,45.80
2018-06-13T09:04:13.345Z,45.44
2018-06-13T09:06:47.696Z,45.28
2018-06-13T09:09:15.287Z,45.51
2018-06-13T09:11:42.887Z,45.38
2018-06-13T09:14:11.366Z,45.24
2018-06-13T09:16:39.230Z,45.17
2018-06-13T09:19:06.817Z,45.10
2018-06-13T09:21:34.686Z,46.11
2018-06-13T09:24:02.302Z,45.96
2018-06-13T09:26:29.914Z,45.38
2018-06-13T09:28:57.823Z,45.58
2018-06-13T09:31:26.037Z,46.01
2018-06-13T09:33:53.651Z,45.81
2018-06-13T09:36:22.059Z,45.60
2018-06-13T09:38:49.675Z,44.59
2018-06-13T09:41:17.306Z,45.03
2018-06-13T09:43:45.227Z,45.17
2018-06-13T09:46:12.871Z,45.25
2018-06-13T09:48:40.664Z,44.44
2018-06-13T09:51:08.526Z,44.42
2018-06-13T09:53:37.264Z,45.08
2018-06-13T09:56:04.859Z,44.36
2018-06-13T09:58:38.350Z,44.87
2018-06-13T10:01:08.007Z,44.94
2018-06-13T10:03:36.560Z,44.63
2018-06-13T10:06:04.931Z,44.83
2018-06-13T10:08:32.515Z,44.31
2018-06-13T10:11:01.543Z,44.50
2018-06-13T10:16:04.930Z,45.00
2018-06-13T10:18:33.557Z,44.48
2018-06-13T10:21:02.300Z,45.48
2018-06-13T10:23:30.567Z,44.76
2018-06-13T10:25:58.412Z,44.72
2018-06-13T10:28:26.013Z,44.40
2018-06-13T10:30:53.598Z,45.60
2018-06-13T10:33:22.147Z,44.53
2018-06-13T10:35:50.232Z,44.43
2018-06-13T10:38:17.819Z,45.12
2018-06-13T10:40:46.716Z,44.72
2018-06-13T10:43:16.530Z,44.31
2018-06-13T10:45:44.103Z,44.00
2018-06-13T10:48:12.955Z,44.28
2018-06-13T10:50:41.980Z,44.00
2018-06-13T10:53:09.549Z,44.12
2018-06-13T10:55:38.425Z,44.35
2018-06-13T10:58:08.754Z,44.60
2018-06-13T11:00:38.774Z,43.85
2018-06-13T11:03:07.936Z,44.64
2018-06-13T11:05:35.551Z,44.33
2018-06-13T11:08:03.146Z,44.64
2018-06-13T11:10:30.997Z,43.59
2018-06-13T11:12:58.598Z,43.70
2018-06-13T11:15:27.822Z,44.58
2018-06-13T11:17:56.686Z,44.49
2018-06-13T11:20:24.305Z,44.37
2018-06-13T11:22:51.950Z,44.07
2018-06-13T11:25:23.491Z,44.68
2018-06-13T11:27:51.091Z,44.43
2018-06-13T11:30:18.666Z,44.74
2018-06-13T11:32:49.120Z,43.80
2018-06-13T11:35:18.619Z,44.00
2018-06-13T11:37:46.440Z,43.85
2018-06-13T11:40:14.317Z,43.90
2018-06-13T11:42:42.830Z,44.23
2018-06-13T11:45:10.421Z,43.73
2018-06-13T11:47:38.287Z,44.27
2018-06-13T11:50:06.686Z,44.31
2018-06-13T11:52:35.057Z,44.08
2018-06-13T11:55:05.123Z,44.82
2018-06-13T11:57:33.563Z,43.93
2018-06-13T12:00:02.090Z,44.45
2018-06-13T12:02:31.003Z,43.92
2018-06-13T12:04:58.577Z,44.80
2018-06-13T12:07:26.163Z,44.15
2018-06-13T12:09:54.025Z,44.21
2018-06-13T12:12:21.618Z,43.97
2018-06-13T12:14:50.763Z,43.66
2018-06-13T12:17:18.631Z,44.77
2018-06-13T12:19:50.712Z,44.07
2018-06-13T12:22:18.329Z,44.21
2018-06-13T12:24:46.224Z,44.17
2018-06-13T12:27:17.477Z,44.11
2018-06-13T12:29:45.068Z,44.44
2018-06-13T12:32:12.959Z,43.94
2018-06-13T12:34:41.279Z,44.14
2018-06-13T12:37:10.275Z,43.44
2018-06-13T12:39:42.566Z,43.47
2018-06-13T12:42:13.742Z,42.83
2018-06-13T12:44:41.811Z,42.16
2018-06-13T12:47:11.249Z,42.19
2018-06-13T12:49:40.709Z,42.81
2018-06-13T12:52:09.254Z,42.11
2018-06-13T16:19:23.325Z,45.77
2018-06-13T16:21:50.999Z,45.31
2018-06-13T16:24:20.311Z,45.92
2018-06-13T16:26:47.903Z,45.24
2018-06-13T16:29:15.513Z,45.07
2018-06-13T16:31:43.446Z,45.22
2018-06-13T16:34:11.779Z,44.88
2018-06-13T16:36:40.555Z,44.72
2018-06-13T16:39:08.735Z,44.04
2018-06-13T16:41:36.502Z,44.25
2018-06-13T16:44:04.231Z,44.40
2018-06-13T16:46:32.296Z,43.95
2018-06-13T16:49:03.171Z,43.70
2018-06-13T16:51:31.462Z,43.57
2018-06-13T16:53:59.947Z,44.07
2018-06-13T16:56:28.188Z,43.37
2018-06-13T16:58:56.949Z,43.79
2018-06-13T17:01:24.806Z,44.21
2018-06-13T17:03:54.237Z,44.04
2018-06-13T17:06:21.854Z,43.44
2018-06-13T17:08:49.751Z,43.77
2018-06-13T17:11:17.333Z,43.22
2018-06-13T17:13:45.075Z,43.50
2018-06-13T17:16:13.496Z,43.75
2018-06-13T17:18:42.405Z,43.98
2018-06-13T17:21:10.822Z,43.67
2018-06-13T17:23:38.760Z,43.32
2018-06-13T17:26:06.581Z,43.79
2018-06-13T17:28:34.764Z,43.58
2018-06-13T17:31:04.540Z,43.68
2018-06-13T17:33:33.340Z,43.19
2018-06-13T17:36:02.279Z,43.36
2018-06-13T17:38:30.172Z,43.53
2018-06-13T17:40:59.412Z,44.03
2018-06-13T17:43:28.214Z,44.14
2018-06-13T17:45:56.342Z,44.07
2018-06-13T17:48:25.342Z,44.00
2018-06-13T17:50:54.334Z,43.77
2018-06-13T17:53:23.519Z,43.59
2018-06-13T17:55:51.924Z,44.15
2018-06-13T17:58:19.547Z,43.95
2018-06-13T18:00:48.287Z,43.95
2018-06-13T18:03:16.957Z,43.98
2018-06-13T18:05:45.153Z,44.22
2018-06-13T18:08:14.167Z,44.00
2018-06-13T18:10:42.443Z,44.26
2018-06-13T18:13:09.998Z,44.30
2018-06-13T18:15:37.858Z,43.45
2018-06-13T18:18:07.190Z,43.45
2018-06-13T18:20:37.534Z,43.61
2018-06-13T18:23:08.286Z,43.67
2018-06-13T18:25:37.105Z,43.49
2018-06-13T18:28:04.673Z,44.48
2018-06-13T18:30:32.529Z,44.43
2018-06-13T18:33:01.980Z,44.27
2018-06-13T18:35:29.604Z,44.32
2018-06-13T18:37:57.454Z,44.08
2018-06-13T18:40:25.181Z,44.51
2018-06-13T18:42:52.900Z,44.53
2018-06-13T18:45:22.458Z,44.71
2018-06-13T18:47:50.771Z,43.98
2018-06-13T18:50:18.400Z,44.32
2018-06-13T18:52:46.272Z,44.01
2018-06-13T18:55:16.069Z,44.63
2018-06-13T18:57:43.731Z,44.43
2018-06-13T19:00:11.571Z,44.42
2018-06-13T19:02:42.801Z,44.96
2018-06-13T19:05:12.332Z,44.73
2018-06-13T19:07:42.166Z,44.51
2018-06-13T19:10:10.525Z,45.08
2018-06-13T19:12:38.395Z,44.62
2018-06-13T19:15:06.330Z,44.83
2018-06-13T19:17:34.842Z,45.50
2018-06-13T19:20:03.850Z,45.04
2018-06-13T19:22:32.434Z,44.91
2018-06-13T19:25:00.860Z,45.40
2018-06-13T19:27:29.442Z,45.09
2018-06-13T19:29:57.290Z,45.23
2018-06-13T19:32:27.108Z,45.17
2018-06-13T19:34:55.304Z,45.43
2018-06-13T19:37:23.707Z,45.36
2018-06-13T19:39:51.559Z,45.56
2018-06-13T19:42:19.119Z,45.46
2018-06-13T19:44:46.995Z,45.71
2018-06-13T19:47:19.676Z,45.88
2018-06-13T19:49:52.422Z,46.32
2018-06-13T19:52:20.086Z,46.57
2018-06-13T19:54:52.715Z,46.34
2018-06-13T19:57:23.246Z,46.75
2018-06-13T19:59:51.804Z,46.79
2018-06-13T20:02:21.816Z,47.05
2018-06-13T20:04:54.749Z,46.97
2018-06-13T20:07:22.328Z,47.46
2018-06-13T20:09:50.779Z,47.90
2018-06-13T20:12:23.694Z,47.91
2018-06-13T20:14:56.236Z,48.51
2018-06-13T20:17:29.403Z,48.04
2018-06-13T20:19:57.455Z,48.54
2018-06-13T20:22:27.126Z,49.29
2018-06-13T20:25:01.154Z,49.10
2018-06-13T20:27:33.631Z,49.94
2018-06-13T20:30:06.326Z,49.73
2018-06-13T20:32:36.898Z,49.88
2018-06-13T20:35:05.435Z,49.75
2018-06-13T20:37:33.654Z,49.74
2018-06-13T20:40:03.431Z,50.13
2018-06-13T20:42:32.491Z,49.78
2018-06-13T20:45:00.463Z,50.34
2018-06-13T20:47:28.325Z,50.38
2018-06-13T20:49:58.424Z,49.90
2018-06-13T20:52:26.510Z,50.27
2018-06-13T20:54:55.295Z,51.00
2018-06-13T20:57:22.874Z,50.81
2018-06-13T20:59:53.387Z,50.96
2018-06-13T21:02:22.111Z,50.88
2018-06-13T21:04:49.700Z,51.63
2018-06-13T21:07:17.698Z,51.84
2018-06-13T21:09:45.554Z,51.73
2018-06-13T21:12:14.414Z,51.74
2018-06-13T21:14:42.863Z,52.48
2018-06-13T21:17:10.698Z,52.71
2018-06-13T21:19:38.286Z,52.69
2018-06-13T21:22:07.501Z,52.62
2018-06-13T21:24:35.382Z,52.79
2018-06-13T21:27:03.058Z,52.71
2018-06-13T21:29:30.651Z,53.71
2018-06-13T21:31:59.510Z,53.21
2018-06-13T21:34:27.109Z,54.09
2018-06-13T21:36:55.303Z,53.73
2018-06-13T21:39:24.773Z,53.62
2018-06-13T21:41:52.342Z,54.02
2018-06-13T21:44:19.942Z,54.57
2018-06-13T21:46:48.770Z,54.28
2018-06-13T21:49:17.766Z,54.96
2018-06-13T21:51:45.582Z,54.84
2018-06-13T21:54:14.360Z,54.99
2018-06-13T21:56:42.751Z,55.63
2018-06-13T21:59:14.486Z,55.75
2018-06-13T22:01:42.371Z,55.75
2018-06-13T22:04:09.923Z,55.36
2018-06-13T22:06:37.478Z,56.04
2018-06-13T22:09:05.291Z,55.54
2018-06-13T22:11:39.402Z,55.48
2018-06-13T22:14:08.569Z,56.16
2018-06-13T22:16:36.169Z,56.31
2018-06-13T22:19:14.255Z,55.85
2018-06-13T22:21:42.456Z,56.46
2018-06-13T22:24:10.178Z,56.27
2018-06-13T22:26:38.038Z,56.01
2018-06-13T22:29:06.257Z,56.29
2018-06-13T22:31:33.823Z,56.10
2018-06-13T22:34:02.643Z,55.86
2018-06-13T22:36:31.819Z,56.43
2018-06-13T22:38:59.387Z,56.62
2018-06-13T22:41:27.503Z,56.54
2018-06-13T22:43:56.414Z,56.19
2018-06-13T22:46:23.971Z,56.73
2018-06-13T22:48:51.535Z,56.31
2018-06-13T22:51:21.386Z,56.21
2018-06-13T22:53:49.007Z,56.23
2018-06-13T22:56:17.544Z,57.06
2018-06-13T22:58:45.138Z,57.09
2018-06-13T23:01:13.462Z,56.64
2018-06-13T23:03:41.264Z,57.22
2018-06-13T23:06:11.494Z,56.56
2018-06-13T23:08:40.250Z,57.53
2018-06-13T23:11:07.916Z,57.00
2018-06-13T23:13:36.400Z,57.78
2018-06-13T23:16:06.959Z,57.16
2018-06-13T23:18:34.518Z,57.62
2018-06-13T23:21:02.642Z,57.45
2018-06-13T23:23:30.487Z,57.34
2018-06-13T23:25:58.394Z,57.74
2018-06-13T23:28:26.806Z,57.63
2018-06-13T23:30:54.878Z,57.88
2018-06-13T23:33:23.615Z,57.23
2018-06-13T23:35:51.317Z,57.73
2018-06-13T23:38:22.550Z,57.34
2018-06-13T23:40:51.443Z,57.60
2018-06-13T23:43:20.079Z,57.92
2018-06-13T23:45:47.647Z,58.00
2018-06-13T23:48:16.323Z,57.82
2018-06-13T23:50:43.903Z,58.04
2018-06-13T23:53:11.462Z,58.08
2018-06-13T23:55:40.474Z,58.35
2018-06-13T23:58:09.184Z,58.13
